Time;durP1;ratioP1;P1;durP2;ratioP2;P2;SDS_P1;SDS_P2;PMS_P1;PMS_P2;Temp;Humidity;BMP_temperature;BMP_pressure;BME280_temperature;BME280_humidity;BME280_pressure;Samples;Min_cycle;Max_cycle;Signal;HPM_P1;HPM_P2
2023/02/22 00:02:43;;;;;;;26.50;5.30;;;;;;;6.94;100.00;98780.01;67582;1282;1016321;-60
2023/02/22 00:05:46;;;;;;;28.00;5.60;;;;;;;6.88;100.00;98783.04;67587;1282;1016417;-60
2023/02/22 00:08:49;;;;;;;;;;;;;;;6.91;100.00;98783.42;67540;1282;1016420;-60
2023/02/22 00:11:51;;;;;;;31.00;6.40;;;;;;;6.83;100.00;98785.86;67548;1282;1016431;-60
2023/02/22 00:14:54;;;;;;;33.40;6.20;;;;;;;6.81;100.00;98785.29;67582;1282;1016660;-60
2023/02/22 00:17:57;;;;;;;28.30;6.20;;;;;;;6.76;100.00;98782.36;67586;1282;1016434;-60
2023/02/22 00:20:59;;;;;;;31.00;5.80;;;;;;;6.83;100.00;98785.38;67537;1282;1015793;-60
2023/02/22 00:24:15;;;;;;;;;;;;;;;6.81;100.00;98787.55;67582;1282;1016366;-60
2023/02/22 00:27:18;;;;;;;28.70;5.40;;;;;;;6.90;100.00;98784.70;67545;1282;1016498;-60
2023/02/22 00:30:20;;;;;;;28.70;5.20;;;;;;;6.90;100.00;98784.70;67581;1282;1016304;-60
2023/02/22 00:33:23;;;;;;;29.80;6.20;;;;;;;6.84;100.00;98783.23;67533;1282;1018740;-60
2023/02/22 00:36:26;;;;;;;30.30;5.80;;;;;;;6.84;100.00;98786.89;67545;1282;1016555;-60
2023/02/22 00:39:29;;;;;;;33.70;6.30;;;;;;;6.86;100.00;98788.00;67564;1282;1016414;-60
2023/02/22 00:42:31;;;;;;;26.30;5.90;;;;;;;6.86;100.00;98792.50;67545;1282;1016457;-60
2023/02/22 00:45:33;;;;;;;22.70;5.20;;;;;;;6.79;100.00;98792.13;67574;1282;1016102;-60
2023/02/22 00:48:36;;;;;;;28.90;6.20;;;;;;;6.85;100.00;98793.77;67536;1282;1016406;-60
2023/02/22 00:51:38;;;;;;;26.20;4.80;;;;;;;6.79;100.00;98792.67;67501;1282;1016215;-60
2023/02/22 00:54:41;;;;;;;26.80;5.90;;;;;;;6.70;100.00;98797.60;67519;1261;1016427;-60
2023/02/22 00:57:44;;;;;;;34.00;6.60;;;;;;;6.69;100.00;98797.96;67547;1282;1017121;-60
2023/02/22 01:00:46;;;;;;;26.20;5.50;;;;;;;6.69;100.00;98799.73;67589;1282;1016697;-60
2023/02/22 01:03:49;;;;;;;29.60;5.50;;;;;;;6.66;100.00;98801.27;67532;1282;1016494;-60
2023/02/22 01:06:51;;;;;;;25.70;5.10;;;;;;;6.57;100.00;98802.86;67525;1282;1016488;-60
2023/02/22 01:09:53;;;;;;;33.90;5.80;;;;;;;6.53;100.00;98804.96;67537;1282;1016543;-60
2023/02/22 01:12:56;;;;;;;31.60;6.60;;;;;;;6.47;100.00;98804.35;67587;1282;1016414;-60
2023/02/22 01:15:59;;;;;;;26.00;5.20;;;;;;;6.51;100.00;98808.70;67562;1282;1016336;-60
2023/02/22 01:19:01;;;;;;;32.90;6.20;;;;;;;6.47;100.00;98809.57;67555;1282;1016649;-60
2023/02/22 01:22:04;;;;;;;28.70;5.60;;;;;;;6.43;100.00;98806.77;67563;1282;1016434;-60
2023/02/22 01:25:06;;;;;;;27.40;5.50;;;;;;;6.44;100.00;98810.55;67573;1282;1016678;-60
2023/02/22 01:28:09;;;;;;;29.60;5.30;;;;;;;6.41;100.00;98808.46;67527;1282;1018097;-60
2023/02/22 01:31:11;;;;;;;30.80;6.40;;;;;;;6.41;100.00;98811.57;67522;1282;1016325;-60
2023/02/22 01:34:14;;;;;;;31.90;5.80;;;;;;;6.44;100.00;98813.50;67536;1282;1016301;-60
2023/02/22 01:37:16;;;;;;;32.70;5.60;;;;;;;6.44;100.00;98812.30;67580;1282;1016063;-60
2023/02/22 01:40:19;;;;;;;33.20;5.50;;;;;;;6.44;100.00;98819.27;67563;1282;1016038;-60
2023/02/22 01:43:21;;;;;;;;;;;;;;;6.37;100.00;98816.27;67513;1282;1016039;-60
2023/02/22 01:46:24;;;;;;;28.70;5.30;;;;;;;6.39;100.00;98821.22;67530;1282;1016553;-61
2023/02/22 01:49:26;;;;;;;31.90;5.30;;;;;;;6.39;100.00;98820.14;67552;1282;1016383;-60
2023/02/22 01:52:28;;;;;;;25.80;5.30;;;;;;;6.37;100.00;98818.16;67551;1282;1016426;-61
2023/02/22 01:55:31;;;;;;;28.40;6.20;;;;;;;6.31;100.00;98823.30;67505;1282;1016341;-60
2023/02/22 01:58:33;;;;;;;29.00;5.20;;;;;;;6.28;100.00;98821.85;67499;1282;1016168;-60
2023/02/22 02:01:36;;;;;;;35.40;6.00;;;;;;;6.31;100.00;98820.70;67513;1282;1016479;-60
2023/02/22 02:04:41;;;;;;;33.20;5.70;;;;;;;6.28;100.00;98825.35;67542;1282;1016133;-60
2023/02/22 02:07:45;;;;;;;27.70;5.40;;;;;;;6.26;100.00;98824.88;67549;1282;1018302;-60
2023/02/22 02:10:47;;;;;;;29.40;5.40;;;;;;;6.18;100.00;98827.48;67590;1281;1016456;-60
2023/02/22 02:13:50;;;;;;;25.60;5.20;;;;;;;6.25;100.00;98826.50;67605;1281;1016348;-60
2023/02/22 02:16:54;;;;;;;;;;;;;;;6.18;100.00;98822.98;67649;1281;1016547;-60
2023/02/22 02:19:58;;;;;;;29.20;5.60;;;;;;;6.11;100.00;98822.92;67659;1281;1016499;-59
2023/02/22 02:23:00;;;;;;;28.00;5.60;;;;;;;6.11;100.00;98818.79;67621;1281;1016408;-60
2023/02/22 02:26:03;;;;;;;28.80;5.60;;;;;;;6.15;100.00;98814.10;67691;1281;1016250;-60
2023/02/22 02:29:05;;;;;;;28.50;5.20;;;;;;;6.13;100.00;98816.06;67629;1281;1016475;-60
2023/02/22 02:32:07;;;;;;;27.20;5.40;;;;;;;6.18;100.00;98820.20;67645;1281;1016419;-60
2023/02/22 02:35:11;;;;;;;26.40;5.60;;;;;;;6.14;100.00;98820.22;67600;1281;1016476;-60
2023/02/22 02:38:13;;;;;;;25.50;5.40;;;;;;;6.06;100.00;98819.30;67643;1281;1016177;-60
2023/02/22 02:41:15;;;;;;;31.00;6.10;;;;;;;6.08;100.00;98819.95;67642;1281;1016206;-60
2023/02/22 02:44:18;;;;;;;29.10;5.50;;;;;;;6.03;100.00;98826.04;67641;1281;1016527;-60
2023/02/22 02:47:20;;;;;;;30.50;5.30;;;;;;;5.98;100.00;98827.64;67582;1281;1016489;-60
2023/02/22 02:50:23;;;;;;;26.50;5.40;;;;;;;5.98;100.00;98827.11;67609;1281;1016410;-60
2023/02/22 02:53:25;;;;;;;27.80;5.10;;;;;;;6.01;100.00;98823.49;67635;1281;1016189;-60
2023/02/22 02:56:27;;;;;;;28.30;5.10;;;;;;;5.94;100.00;98824.69;67640;1281;1015968;-60
2023/02/22 02:59:30;;;;;;;26.00;5.50;;;;;;;5.94;100.00;98825.86;67614;1281;1016372;-61
2023/02/22 03:02:33;;;;;;;23.70;5.60;;;;;;;5.97;100.00;98828.00;67620;1281;1016474;-60
2023/02/22 03:05:35;;;;;;;30.20;5.60;;;;;;;6.01;100.00;98826.29;67631;1281;1016497;-62
2023/02/22 03:08:38;;;;;;;28.40;5.80;;;;;;;5.99;100.00;98829.69;67649;1281;1016038;-62
2023/02/22 03:11:41;;;;;;;26.70;5.10;;;;;;;5.98;100.00;98830.27;67600;1281;1016314;-61
2023/02/22 03:14:43;;;;;;;29.80;5.30;;;;;;;6.01;100.00;98835.00;67640;1281;1016364;-61
2023/02/22 03:17:46;;;;;;;28.80;5.40;;;;;;;5.95;100.00;98834.20;67632;1281;1016151;-62
2023/02/22 03:20:48;;;;;;;29.40;5.60;;;;;;;5.94;100.00;98839.77;67607;1281;1016537;-60
2023/02/22 03:23:51;;;;;;;28.40;5.80;;;;;;;5.91;100.00;98843.54;67601;1281;1016423;-60
2023/02/22 03:26:53;;;;;;;27.90;5.30;;;;;;;5.90;100.00;98844.42;67581;1281;1016949;-60
2023/02/22 03:29:56;;;;;;;29.60;6.10;;;;;;;5.90;100.00;98847.73;67647;1281;1016842;-60
2023/02/22 03:32:58;;;;;;;28.50;6.10;;;;;;;5.74;100.00;98845.45;67653;1281;1016460;-60
2023/02/22 03:36:01;;;;;;;27.70;5.70;;;;;;;5.72;100.00;98847.76;67629;1281;1016422;-60
2023/02/22 03:39:04;;;;;;;29.80;5.40;;;;;;;5.71;100.00;98845.91;67617;1281;1016461;-61
2023/02/22 03:42:06;;;;;;;29.10;5.40;;;;;;;5.60;100.00;98849.30;67665;1281;1018718;-60
2023/02/22 03:45:09;;;;;;;;;;;;;;;5.69;100.00;98847.89;67589;1281;1016335;-60
2023/02/22 03:48:13;;;;;;;;;;;;;;;5.75;100.00;98848.87;67662;1281;1016392;-60
2023/02/22 03:51:15;;;;;;;26.90;5.40;;;;;;;5.74;100.00;98848.23;67602;1281;1016463;-60
2023/02/22 03:54:18;;;;;;;34.00;5.80;;;;;;;5.76;100.00;98846.72;67639;1281;1016262;-60
2023/02/22 03:57:20;;;;;;;33.40;5.80;;;;;;;5.78;100.00;98847.17;67626;1281;1016465;-60
2023/02/22 04:00:22;;;;;;;26.10;5.50;;;;;;;5.72;100.00;98849.88;67636;1281;1016461;-60
2023/02/22 04:03:25;;;;;;;40.90;6.90;;;;;;;5.58;100.00;98847.11;67609;1281;1016241;-60
2023/02/22 04:06:27;;;;;;;28.60;5.90;;;;;;;5.54;100.00;98852.48;67596;1281;1016455;-60
2023/02/22 04:09:30;;;;;;;25.70;5.10;;;;;;;5.62;100.00;98855.81;67602;1281;1016135;-60
2023/02/22 04:12:32;;;;;;;29.00;6.70;;;;;;;5.55;100.00;98857.48;67650;1281;1016353;-60
2023/02/22 04:15:34;;;;;;;32.50;6.80;;;;;;;5.49;100.00;98854.25;67642;1281;1016494;-60
2023/02/22 04:18:37;;;;;;;26.70;5.70;;;;;;;5.55;100.00;98853.81;67621;1281;1016464;-60
2023/02/22 04:21:39;;;;;;;31.50;5.30;;;;;;;5.57;100.00;98853.59;67594;1281;1018214;-60
2023/02/22 04:24:41;;;;;;;28.80;5.20;;;;;;;5.53;100.00;98857.90;67592;1281;1017010;-60
2023/02/22 04:27:44;;;;;;;28.20;5.90;;;;;;;5.65;100.00;98857.43;67632;1281;1016676;-59
2023/02/22 04:30:46;;;;;;;26.10;5.60;;;;;;;5.50;100.00;98860.95;67652;1281;1016267;-60
2023/02/22 04:33:49;;;;;;;27.60;6.00;;;;;;;5.51;100.00;98860.39;67657;1281;1015905;-60
2023/02/22 04:36:51;;;;;;;33.90;7.30;;;;;;;5.49;100.00;98861.34;67656;1281;1016304;-60
2023/02/22 04:39:54;;;;;;;27.20;5.60;;;;;;;5.41;100.00;98858.90;67641;1281;1018693;-60
2023/02/22 04:42:57;;;;;;;30.30;6.20;;;;;;;5.45;100.00;98861.35;67634;1281;1016379;-59
2023/02/22 04:45:59;;;;;;;31.90;5.90;;;;;;;5.53;100.00;98863.08;67650;1281;1016431;-60
2023/02/22 04:49:01;;;;;;;29.70;5.50;;;;;;;5.46;100.00;98862.16;67611;1281;1018035;-60
2023/02/22 04:52:04;;;;;;;27.00;5.70;;;;;;;5.47;100.00;98866.27;67633;1281;1016476;-59
2023/02/22 04:55:06;;;;;;;30.30;6.10;;;;;;;5.49;100.00;98863.60;67620;1281;1016385;-60
2023/02/22 04:58:09;;;;;;;33.20;6.10;;;;;;;5.51;100.00;98863.52;67651;1281;1016500;-60
2023/02/22 05:01:11;;;;;;;31.40;6.30;;;;;;;5.52;100.00;98867.13;67658;1281;1016472;-60
2023/02/22 05:04:14;;;;;;;32.60;6.30;;;;;;;5.57;100.00;98865.73;67572;1281;1016324;-60
2023/02/22 05:07:16;;;;;;;33.70;6.20;;;;;;;5.65;100.00;98869.40;67590;1281;1016460;-60
2023/02/22 05:10:18;;;;;;;29.80;5.80;;;;;;;5.36;100.00;98869.30;67574;1281;1016277;-60
2023/02/22 05:13:21;;;;;;;31.00;6.40;;;;;;;5.18;100.00;98865.16;67611;1281;1019380;-60
2023/02/22 05:16:23;;;;;;;33.20;6.90;;;;;;;5.12;100.00;98874.93;67636;1281;1016466;-60
2023/02/22 05:19:26;;;;;;;28.90;6.20;;;;;;;5.17;100.00;98876.11;67654;1281;1016485;-60
2023/02/22 05:22:28;;;;;;;27.00;5.50;;;;;;;5.13;100.00;98875.58;67597;1281;1016365;-60
2023/02/22 05:25:31;;;;;;;31.20;6.80;;;;;;;5.03;100.00;98877.33;67595;1281;1016339;-60
2023/02/22 05:28:33;;;;;;;30.40;6.30;;;;;;;5.04;100.00;98881.96;67652;1281;1018952;-60
2023/02/22 05:31:36;;;;;;;28.80;6.30;;;;;;;5.03;100.00;98882.36;65084;1281;6389115;-60
2023/02/22 05:34:38;;;;;;;33.30;7.20;;;;;;;4.93;100.00;98887.23;67607;1281;1018686;-60
2023/02/22 05:37:41;;;;;;;27.40;5.60;;;;;;;4.86;100.00;98894.77;67597;1281;1016849;-60
2023/02/22 05:40:43;;;;;;;;;;;;;;;4.88;100.00;98896.95;67644;1281;1016339;-60
2023/02/22 05:43:46;;;;;;;32.40;5.80;;;;;;;4.89;100.00;98899.50;67620;1281;1016453;-60
2023/02/22 05:46:49;;;;;;;27.10;5.90;;;;;;;4.89;100.00;98901.95;67593;1281;1016384;-60
2023/02/22 05:49:51;;;;;;;33.90;6.80;;;;;;;4.78;100.00;98905.80;67614;1281;1016470;-60
2023/02/22 05:52:54;;;;;;;35.60;6.80;;;;;;;4.84;100.00;98907.14;67656;1281;1016385;-60
2023/02/22 05:55:56;;;;;;;34.70;6.50;;;;;;;4.87;100.00;98912.23;67625;1281;1015924;-59
2023/02/22 05:58:58;;;;;;;37.10;7.60;;;;;;;4.86;100.00;98915.89;67581;1281;1016359;-60
2023/02/22 06:02:01;;;;;;;28.70;5.90;;;;;;;4.83;100.00;98917.39;67559;1281;1016315;-60
2023/02/22 06:05:03;;;;;;;29.70;6.20;;;;;;;4.93;100.00;98923.29;67634;1281;1016398;-60
2023/02/22 06:08:05;;;;;;;26.80;5.70;;;;;;;4.94;100.00;98928.09;67636;1281;1018198;-60
2023/02/22 06:11:08;;;;;;;28.60;5.70;;;;;;;4.89;100.00;98925.68;67624;1281;1016258;-60
2023/02/22 06:14:11;;;;;;;33.00;6.00;;;;;;;4.85;100.00;98927.71;67596;1281;1016443;-60
2023/02/22 06:17:13;;;;;;;33.30;7.20;;;;;;;4.91;100.00;98930.96;67626;1281;1016358;-60
2023/02/22 06:20:16;;;;;;;28.40;6.40;;;;;;;4.96;100.00;98934.63;67625;1281;1019495;-61
2023/02/22 06:23:18;;;;;;;29.80;6.40;;;;;;;4.98;100.00;98933.52;67651;1281;1016440;-60
2023/02/22 06:26:21;;;;;;;30.60;7.00;;;;;;;5.00;100.00;98936.88;67576;1281;1016425;-60
2023/02/22 06:29:24;;;;;;;34.60;6.80;;;;;;;4.93;100.00;98936.98;67642;1281;1016188;-60
2023/02/22 06:32:26;;;;;;;32.00;7.40;;;;;;;4.96;100.00;98938.59;67637;1281;1016397;-60
2023/02/22 06:35:29;;;;;;;29.80;6.30;;;;;;;5.11;100.00;98941.17;67575;1281;1016393;-60
2023/02/22 06:38:32;;;;;;;33.20;7.00;;;;;;;5.21;100.00;98948.10;67569;1281;1016428;-60
2023/02/22 06:41:34;;;;;;;33.40;7.00;;;;;;;5.32;100.00;98945.94;67636;1281;1016365;-60
2023/02/22 06:44:36;;;;;;;31.70;6.60;;;;;;;5.37;100.00;98947.49;67598;1281;1016109;-60
2023/02/22 06:47:40;;;;;;;29.20;6.10;;;;;;;5.39;100.00;98953.15;67599;1281;1016248;-60
2023/02/22 06:50:42;;;;;;;27.70;6.60;;;;;;;5.55;100.00;98958.08;67645;1281;1019160;-60
2023/02/22 06:53:44;;;;;;;28.20;6.20;;;;;;;5.75;100.00;98960.61;67559;1282;1016927;-60
2023/02/22 06:56:48;;;;;;;30.70;7.60;;;;;;;5.93;100.00;98961.30;67503;1281;1016551;-60
2023/02/22 06:59:50;;;;;;;31.80;7.00;;;;;;;5.95;100.00;98961.59;67495;1281;1018593;-60
2023/02/22 07:02:53;;;;;;;33.10;7.10;;;;;;;6.03;100.00;98962.86;67496;1281;1016393;-59
2023/02/22 07:05:55;;;;;;;25.10;6.50;;;;;;;6.12;100.00;98967.19;67565;1282;1019301;-60
2023/02/22 07:08:58;;;;;;;38.20;7.90;;;;;;;6.28;100.00;98972.76;67572;1281;1016534;-60
2023/02/22 07:12:00;;;;;;;31.90;6.90;;;;;;;6.41;100.00;98973.99;67572;1282;1019745;-60
2023/02/22 07:15:02;;;;;;;31.50;7.10;;;;;;;6.45;100.00;98974.34;67552;1282;1016308;-60
2023/02/22 07:18:06;;;;;;;29.80;7.30;;;;;;;6.47;100.00;98972.85;67579;1282;1016242;-60
2023/02/22 07:21:09;;;;;;;34.40;7.40;;;;;;;6.57;100.00;98976.96;67614;1282;1016306;-60
2023/02/22 07:24:12;;;;;;;33.70;7.20;;;;;;;6.69;100.00;98976.30;67607;1281;1016543;-60
2023/02/22 07:27:14;;;;;;;36.20;8.40;;;;;;;6.72;100.00;98977.17;67614;1282;1016321;-60
2023/02/22 07:30:16;;;;;;;33.50;8.30;;;;;;;6.71;100.00;98976.88;67596;1281;1016406;-59
2023/02/22 07:33:19;;;;;;;38.00;8.00;;;;;;;6.81;100.00;98978.90;67549;1282;1016416;-60
2023/02/22 07:36:21;;;;;;;36.00;8.30;;;;;;;6.99;100.00;98980.38;67600;1282;1017246;-60
2023/02/22 07:39:24;;;;;;;31.50;7.60;;;;;;;7.28;100.00;98980.52;67617;1282;1016337;-60
2023/02/22 07:42:26;;;;;;;34.80;8.30;;;;;;;7.49;100.00;98980.60;67591;1282;1017028;-60
2023/02/22 07:45:29;;;;;;;32.60;8.70;;;;;;;7.50;100.00;98985.79;67539;1282;1015998;-60
2023/02/22 07:48:31;;;;;;;35.10;8.70;;;;;;;7.32;100.00;98981.55;67555;1282;1016357;-60
2023/02/22 07:51:33;;;;;;;38.90;9.20;;;;;;;7.21;100.00;98985.83;67543;1282;1016652;-60
2023/02/22 07:54:36;;;;;;;35.30;9.20;;;;;;;7.24;100.00;98979.79;67620;1281;1016448;-60
2023/02/22 07:57:38;;;;;;;35.30;8.80;;;;;;;7.33;100.00;98980.80;67598;1281;1016260;-60
2023/02/22 08:00:42;;;;;;;37.10;8.50;;;;;;;7.28;100.00;98980.86;67537;1282;1016206;-60
2023/02/22 08:03:46;;;;;;;34.00;8.50;;;;;;;7.27;100.00;98977.21;67534;1282;1016501;-60
2023/02/22 08:06:49;;;;;;;35.50;9.20;;;;;;;7.26;100.00;98979.70;67598;1281;1016392;-60
2023/02/22 08:09:51;;;;;;;;;;;;;;;7.67;100.00;98981.50;67546;1282;1016265;-60
2023/02/22 08:12:54;;;;;;;32.40;9.10;;;;;;;8.05;100.00;98981.12;67583;1281;1016426;-60
2023/02/22 08:15:57;;;;;;;37.30;8.40;;;;;;;8.33;100.00;98987.94;67543;1282;1016520;-60
2023/02/22 08:18:59;;;;;;;35.20;8.30;;;;;;;8.47;100.00;98987.99;67519;1282;1016399;-60
2023/02/22 08:22:02;;;;;;;36.70;9.10;;;;;;;8.71;100.00;98991.70;67548;1282;1016544;-60
2023/02/22 08:25:05;;;;;;;30.90;8.00;;;;;;;8.88;100.00;98991.36;67589;1282;1016518;-61
2023/02/22 08:28:07;;;;;;;32.80;8.00;;;;;;;8.95;100.00;98994.11;67555;1282;1016384;-61
2023/02/22 08:31:10;;;;;;;29.40;8.10;;;;;;;8.78;100.00;98997.42;67576;1282;1017140;-60
2023/02/22 08:34:12;;;;;;;29.60;8.00;;;;;;;8.81;100.00;98998.68;67608;1282;1018988;-60
2023/02/22 08:37:15;;;;;;;32.60;8.00;;;;;;;9.00;100.00;98996.98;67573;1282;1016488;-60
2023/02/22 08:40:17;;;;;;;30.20;8.80;;;;;;;9.20;100.00;98997.73;67535;1282;1016383;-60
2023/02/22 08:43:20;;;;;;;29.90;8.70;;;;;;;9.35;100.00;98999.71;67530;1282;1016527;-60
2023/02/22 08:46:22;;;;;;;29.30;8.30;;;;;;;9.36;100.00;99002.64;67581;1281;1016378;-61
2023/02/22 08:49:25;;;;;;;31.20;8.60;;;;;;;9.54;100.00;99002.02;67596;1282;1018214;-60
2023/02/22 08:52:27;;;;;;;34.00;9.10;;;;;;;9.55;100.00;99000.92;67582;1282;1016420;-60
2023/02/22 08:55:30;;;;;;;32.60;8.10;;;;;;;9.49;100.00;99004.36;67532;1282;1016412;-60
2023/02/22 08:58:33;;;;;;;36.60;8.90;;;;;;;9.54;100.00;99003.60;67590;1281;1020114;-60
2023/02/22 09:01:36;;;;;;;33.10;8.30;;;;;;;9.45;100.00;99003.23;67511;1282;1016359;-61
2023/02/22 09:04:38;;;;;;;30.60;8.20;;;;;;;9.17;100.00;99003.12;67632;1282;1016251;-60
2023/02/22 09:07:42;;;;;;;34.10;8.90;;;;;;;9.22;100.00;99001.83;67586;1282;1016474;-60
2023/02/22 09:10:45;;;;;;;36.00;9.80;;;;;;;9.11;100.00;98999.05;67564;1282;1016826;-60
2023/02/22 09:13:47;;;;;;;33.80;8.30;;;;;;;9.13;100.00;98996.53;67562;1282;1016266;-60
2023/02/22 09:16:50;;;;;;;35.30;8.90;;;;;;;9.35;100.00;98997.47;67555;1282;1016110;-60
2023/02/22 09:19:52;;;;;;;30.70;7.50;;;;;;;9.93;100.00;98989.75;67565;1282;1016871;-60
2023/02/22 09:22:55;;;;;;;;;;;;;;;10.28;100.00;98993.05;67589;1282;1016373;-60
2023/02/22 09:25:58;;;;;;;29.10;7.20;;;;;;;10.30;100.00;98998.16;67588;1282;1015995;-60
2023/02/22 09:29:01;;;;;;;30.50;6.50;;;;;;;10.04;100.00;99005.96;67595;1281;1018223;-60
2023/02/22 09:32:04;;;;;;;26.60;4.80;;;;;;;10.08;100.00;99000.84;67537;1282;1016187;-60
2023/02/22 09:35:07;;;;;;;26.40;5.20;;;;;;;10.06;100.00;98997.08;67607;1282;1016526;-60
2023/02/22 09:38:10;;;;;;;30.10;5.90;;;;;;;10.04;100.00;98998.77;67528;1282;1016466;-61
2023/02/22 09:41:13;;;;;;;26.80;6.00;;;;;;;10.02;100.00;99002.88;67586;1282;1016508;-60
2023/02/22 09:44:15;;;;;;;26.10;5.00;;;;;;;9.96;100.00;98999.58;67589;1282;1016906;-60
2023/02/22 09:47:18;;;;;;;24.30;4.10;;;;;;;9.97;100.00;99007.34;67539;1282;1016339;-60
2023/02/22 09:50:21;;;;;;;23.00;4.10;;;;;;;9.86;100.00;99003.58;67548;1282;1016400;-60
2023/02/22 09:53:28;;;;;;;25.80;5.20;;;;;;;9.69;100.00;99003.13;67613;1281;1016277;-60
2023/02/22 09:56:30;;;;;;;26.60;5.80;;;;;;;9.50;100.00;99005.21;67562;1282;1017869;-60
2023/02/22 09:59:33;;;;;;;23.50;5.10;;;;;;;9.54;100.00;99005.19;67563;1282;1016440;-60
2023/02/22 10:02:35;;;;;;;24.00;5.00;;;;;;;9.56;100.00;99011.20;67598;1282;1016294;-60
2023/02/22 10:05:38;;;;;;;23.30;4.50;;;;;;;9.49;100.00;99008.90;67601;1282;1017498;-61
2023/02/22 10:08:41;;;;;;;26.00;4.90;;;;;;;9.41;100.00;99005.52;67544;1281;1015865;-61
2023/02/22 10:11:43;;;;;;;21.10;3.50;;;;;;;9.36;100.00;99010.31;67568;1281;1016417;-61
2023/02/22 10:14:45;;;;;;;22.70;4.00;;;;;;;8.98;100.00;99008.80;67565;1281;1016460;-62
2023/02/22 10:17:48;;;;;;;21.40;3.60;;;;;;;8.81;100.00;99004.58;67576;1281;1016685;-60
2023/02/22 10:20:50;;;;;;;25.30;4.50;;;;;;;8.74;100.00;99003.38;67583;1281;1016426;-61
2023/02/22 10:23:53;;;;;;;21.80;4.30;;;;;;;8.73;100.00;99001.02;67532;1282;1016475;-61
2023/02/22 10:26:55;;;;;;;20.40;4.60;;;;;;;8.85;100.00;99002.80;67560;1282;1016402;-61
2023/02/22 10:29:57;;;;;;;23.40;4.50;;;;;;;8.95;100.00;98997.92;67583;1281;1017066;-60
2023/02/22 10:33:00;;;;;;;22.70;5.00;;;;;;;8.81;100.00;99000.21;67601;1281;1016379;-61
2023/02/22 10:36:02;;;;;;;21.60;4.50;;;;;;;8.79;100.00;98996.35;67609;1282;1017352;-60
2023/02/22 10:39:06;;;;;;;27.70;4.90;;;;;;;8.88;100.00;98988.41;67584;1281;1015804;-60
2023/02/22 10:42:09;;;;;;;20.60;4.40;;;;;;;9.03;100.00;98991.95;67563;1281;1016341;-60
2023/02/22 10:45:11;;;;;;;25.90;4.90;;;;;;;9.17;100.00;98994.58;67542;1281;1016675;-60
2023/02/22 10:48:14;;;;;;;25.80;4.60;;;;;;;9.15;100.00;98996.73;67545;1282;1016488;-60
2023/02/22 10:51:16;;;;;;;24.80;4.90;;;;;;;9.16;100.00;98993.58;67574;1282;1016497;-60
2023/02/22 10:54:19;;;;;;;23.80;4.40;;;;;;;8.92;100.00;98993.41;67581;1281;1017121;-60
2023/02/22 10:57:22;;;;;;;21.90;4.40;;;;;;;8.92;100.00;99004.05;67546;1281;1015754;-60
2023/02/22 11:00:25;;;;;;;20.80;4.00;;;;;;;8.84;100.00;98998.20;67562;1282;1016308;-60
2023/02/22 11:03:28;;;;;;;21.90;4.10;;;;;;;8.73;100.00;99001.89;67565;1281;1018883;-61
2023/02/22 11:06:31;;;;;;;22.90;5.20;;;;;;;8.80;100.00;99003.98;67594;1282;1018125;-62
2023/02/22 11:09:34;;;;;;;24.20;5.80;;;;;;;8.77;100.00;99002.85;67579;1282;1016518;-60
2023/02/22 11:12:37;;;;;;;21.40;4.60;;;;;;;8.76;100.00;99002.60;67545;1281;1016821;-60
2023/02/22 11:15:39;;;;;;;22.80;4.90;;;;;;;8.83;100.00;99005.39;67571;1282;1016457;-60
2023/02/22 11:18:42;;;;;;;23.60;5.00;;;;;;;8.86;100.00;99002.60;67608;1282;1018708;-60
2023/02/22 11:21:44;;;;;;;24.00;4.70;;;;;;;8.89;100.00;98996.89;67555;1282;1016237;-60
2023/02/22 11:24:49;;;;;;;21.20;4.90;;;;;;;9.00;100.00;98993.85;67540;1282;1016472;-61
2023/02/22 11:27:52;;;;;;;23.40;5.00;;;;;;;9.37;100.00;98993.14;67614;1282;1016323;-60
2023/02/22 11:30:54;;;;;;;23.00;4.60;;;;;;;9.54;100.00;98994.68;67537;1281;1017887;-60
2023/02/22 11:33:57;;;;;;;20.70;4.00;;;;;;;9.38;100.00;98993.98;67557;1281;1016412;-60
2023/02/22 11:36:59;;;;;;;20.40;4.20;;;;;;;9.27;100.00;98995.94;67577;1282;1016418;-60
2023/02/22 11:40:02;;;;;;;23.90;4.70;;;;;;;9.37;100.00;98994.52;67587;1281;1016469;-60
2023/02/22 11:43:05;;;;;;;28.10;5.20;;;;;;;9.46;100.00;98991.27;67589;1281;1016411;-60
2023/02/22 11:46:08;;;;;;;21.50;4.60;;;;;;;9.56;100.00;98991.59;67585;1281;1016259;-60
2023/02/22 11:49:10;;;;;;;;;;;;;;;9.35;100.00;98997.44;67616;1282;1018120;-60
2023/02/22 11:52:13;;;;;;;22.90;4.50;;;;;;;9.12;100.00;98995.02;67579;1282;1017043;-61
2023/02/22 11:55:20;;;;;;;27.00;5.10;;;;;;;8.89;100.00;99001.59;67550;1282;1016453;-61
2023/02/22 11:58:23;;;;;;;23.50;5.40;;;;;;;8.69;100.00;98999.65;67553;1281;1016627;-60
2023/02/22 12:01:25;;;;;;;23.90;5.20;;;;;;;8.68;100.00;98998.47;67535;1282;1016778;-60
2023/02/22 12:04:28;;;;;;;;;;;;;;;8.73;100.00;98998.73;67607;1282;1016525;-61
2023/02/22 12:07:31;;;;;;;25.50;5.30;;;;;;;8.87;100.00;99000.45;67558;1282;1018025;-60
2023/02/22 12:10:33;;;;;;;;;;;;;;;9.15;100.00;98994.34;67568;1282;1015964;-60
2023/02/22 12:13:36;;;;;;;22.10;4.90;;;;;;;9.53;100.00;98985.85;67586;1282;1018959;-61
2023/02/22 12:16:42;;;;;;;22.40;5.70;;;;;;;10.40;100.00;98982.05;67569;1282;1016169;-61
2023/02/22 12:19:45;;;;;;;21.50;4.80;;;;;;;12.05;100.00;98976.30;67561;1282;1016309;-61
2023/02/22 12:22:48;;;;;;;25.00;4.80;;;;;;;12.41;100.00;98974.67;67586;1282;1016480;-61
2023/02/22 12:25:51;;;;;;;22.50;4.50;;;;;;;12.06;100.00;98977.30;67575;1281;1016640;-61
2023/02/22 12:28:58;;;;;;;23.60;5.10;;;;;;;11.76;100.00;98979.85;67542;1282;1016512;-61
2023/02/22 12:32:00;;;;;;;20.40;5.50;;;;;;;11.18;100.00;98978.55;67590;1282;1016502;-60
2023/02/22 12:35:04;;;;;;;21.10;5.00;;;;;;;10.94;100.00;98980.15;67558;1281;1016454;-60
2023/02/22 12:38:07;;;;;;;25.50;5.40;;;;;;;10.74;100.00;98981.32;67601;1282;1016155;-60
2023/02/22 12:41:09;;;;;;;23.60;5.50;;;;;;;10.36;100.00;98980.88;67533;1282;1016477;-60
2023/02/22 12:44:12;;;;;;;25.90;6.00;;;;;;;10.22;100.00;98978.71;67589;1282;1016119;-60
2023/02/22 12:47:15;;;;;;;;;;;;;;;10.15;100.00;98978.04;67558;1282;1015784;-60
2023/02/22 12:50:18;;;;;;;21.50;4.80;;;;;;;10.17;100.00;98981.42;67550;1282;1016512;-60
2023/02/22 12:53:21;;;;;;;23.60;5.40;;;;;;;10.09;100.00;98982.06;67588;1282;1016274;-61
2023/02/22 12:56:24;;;;;;;;;;;;;;;10.17;100.00;98981.94;67585;1282;1016487;-61
2023/02/22 12:59:27;;;;;;;23.70;5.30;;;;;;;10.12;100.00;98973.54;67593;1282;1016541;-60
2023/02/22 13:02:29;;;;;;;27.00;5.10;;;;;;;10.30;100.00;98972.70;67589;1282;1016543;-61
2023/02/22 13:05:32;;;;;;;25.50;5.10;;;;;;;10.59;100.00;98973.16;67547;1282;1016613;-60
2023/02/22 13:08:36;;;;;;;26.00;5.30;;;;;;;10.42;100.00;98980.38;67548;1282;1016479;-60
2023/02/22 13:11:39;;;;;;;;;;;;;;;10.10;100.00;98975.89;67594;1282;1016531;-60
2023/02/22 13:14:42;;;;;;;27.90;5.40;;;;;;;10.12;100.00;98975.98;67571;1282;1019464;-61
2023/02/22 13:17:44;;;;;;;24.80;5.10;;;;;;;10.51;100.00;98970.62;67584;1282;1020055;-61
2023/02/22 13:20:47;;;;;;;22.50;4.90;;;;;;;10.85;100.00;98968.77;67610;1282;1016785;-61
2023/02/22 13:23:49;;;;;;;23.80;5.10;;;;;;;11.22;100.00;98969.36;67568;1282;1016306;-60
2023/02/22 13:26:52;;;;;;;;;;;;;;;11.17;100.00;98969.71;67557;1282;1016279;-61
2023/02/22 13:29:56;;;;;;;21.30;4.90;;;;;;;11.09;100.00;98973.48;67589;1282;1016867;-60
2023/02/22 13:32:59;;;;;;;26.40;5.30;;;;;;;11.01;100.00;98976.05;67565;1282;1016525;-61
2023/02/22 13:36:02;;;;;;;;;;;;;;;10.83;100.00;98977.30;67533;1282;1016530;-61
2023/02/22 13:39:05;;;;;;;27.90;5.50;;;;;;;10.45;100.00;98978.27;67565;1282;1016543;-61
2023/02/22 13:42:09;;;;;;;25.50;4.90;;;;;;;10.11;100.00;98983.72;67604;1282;1016464;-62
2023/02/22 13:45:11;;;;;;;26.30;5.20;;;;;;;9.93;100.00;98988.92;67550;1282;1016029;-61
2023/02/22 13:48:14;;;;;;;;;;;;;;;9.77;100.00;98992.56;67567;1282;1016340;-61
2023/02/22 13:51:17;;;;;;;22.30;5.60;;;;;;;9.75;100.00;98991.65;67589;1281;1016355;-62
2023/02/22 13:54:19;;;;;;;23.10;5.20;;;;;;;9.68;100.00;98991.14;67588;1282;1019122;-61